Time;durP1;ratioP1;P1;durP2;ratioP2;P2;SDS_P1;SDS_P2;PMS_P1;PMS_P2;Temp;Humidity;BMP_temperature;BMP_pressure;BME280_temperature;BME280_humidity;BME280_pressure;Samples;Min_cycle;Max_cycle;Signal;HPM_P1;HPM_P2
2021/12/02 00:02:53;;;;;;;6.47;1.42;;;;;;;2.09;100.00;98708.69;10131590;28;20713;-70
2021/12/02 00:07:51;;;;;;;11.48;2.40;;;;;;;2.05;100.00;98754.31;10133405;28;20046;-69
2021/12/02 00:12:49;;;;;;;4.18;0.90;;;;;;;2.08;100.00;98750.19;10129291;28;20046;-70
2021/12/02 00:17:53;;;;;;;7.10;1.05;;;;;;;2.03;100.00;98755.72;10131118;28;20039;-69
2021/12/02 00:23:28;;;;;;;5.28;1.02;;;;;;;2.02;100.00;98773.00;10131057;28;20074;-69
2021/12/02 00:28:26;;;;;;;5.15;0.77;;;;;;;2.03;100.00;98780.00;10119487;28;20481;-69
2021/12/02 00:33:28;;;;;;;4.65;0.90;;;;;;;1.99;100.00;98784.41;10125828;28;20098;-69
2021/12/02 00:38:26;;;;;;;9.20;1.63;;;;;;;1.96;100.00;98806.59;10127993;28;20642;-69
2021/12/02 00:43:23;;;;;;;6.97;1.58;;;;;;;2.00;100.00;98812.97;10128207;28;20042;-70
2021/12/02 00:48:19;;;;;;;6.05;1.10;;;;;;;1.96;100.00;98828.94;10131898;28;20042;-70
2021/12/02 00:53:20;;;;;;;14.05;1.65;;;;;;;1.98;100.00;98820.56;10135196;28;20046;-69
2021/12/02 00:58:20;;;;;;;3.22;0.50;;;;;;;1.99;100.00;98835.63;10125276;28;20117;-69
2021/12/02 01:03:18;;;;;;;8.57;1.10;;;;;;;1.97;100.00;98837.81;10133042;28;20079;-69
2021/12/02 01:08:15;;;;;;;5.35;0.75;;;;;;;1.96;100.00;98871.28;10128429;28;20053;-70
2021/12/02 01:13:12;;;;;;;19.85;1.33;;;;;;;1.95;100.00;98902.00;10132056;28;20042;-70
2021/12/02 01:18:08;;;;;;;5.55;0.80;;;;;;;1.92;100.00;98889.94;10128542;28;20043;-70
2021/12/02 01:23:07;;;;;;;2.53;0.88;;;;;;;1.83;100.00;98911.47;10133814;28;20129;-70
2021/12/02 01:28:04;;;;;;;5.20;0.80;;;;;;;1.82;100.00;98915.22;10134931;28;20074;-70
2021/12/02 01:33:04;;;;;;;10.77;1.23;;;;;;;1.79;100.00;98915.84;10131441;28;20065;-70
2021/12/02 01:38:01;;;;;;;16.50;1.75;;;;;;;1.73;100.00;98937.81;10132576;28;20109;-68
2021/12/02 01:42:58;;;;;;;1.15;0.40;;;;;;;1.71;100.00;98956.97;10137597;28;20042;-70
2021/12/02 01:47:56;;;;;;;6.47;1.10;;;;;;;1.72;100.00;98953.19;10134139;28;20077;-71
2021/12/02 01:53:00;;;;;;;9.88;1.20;;;;;;;1.68;100.00;98968.34;10127138;28;20129;-70
2021/12/02 01:58:05;;;;;;;5.43;0.95;;;;;;;1.59;100.00;98975.56;10121275;28;20109;-70
2021/12/02 02:03:02;;;;;;;5.38;0.73;;;;;;;1.53;100.00;98980.22;10118689;28;20110;-68
2021/12/02 02:08:03;;;;;;;6.32;0.85;;;;;;;1.50;100.00;99001.59;10130896;28;20046;-69
2021/12/02 02:13:04;;;;;;;1.63;0.35;;;;;;;1.43;100.00;98994.69;10124936;28;20078;-68
2021/12/02 02:18:07;;;;;;;7.40;0.57;;;;;;;1.39;100.00;99009.88;10134402;28;20438;-69
2021/12/02 02:23:06;;;;;;;5.13;0.55;;;;;;;1.32;100.00;99014.84;10138663;28;20077;-67
2021/12/02 02:28:03;;;;;;;4.15;0.80;;;;;;;1.28;100.00;99030.00;10145779;28;20089;-70
2021/12/02 02:33:00;;;;;;;3.10;0.50;;;;;;;1.25;100.00;99044.06;10146441;28;20075;-69
2021/12/02 02:37:57;;;;;;;7.80;0.57;;;;;;;1.22;100.00;99063.50;10143104;28;20112;-68
2021/12/02 02:42:59;;;;;;;9.43;1.55;;;;;;;1.26;100.00;99061.81;10139630;28;20089;-67
2021/12/02 02:47:55;;;;;;;2.13;0.35;;;;;;;1.26;100.00;99080.66;10132557;28;20042;-70
2021/12/02 02:53:16;;;;;;;3.65;0.40;;;;;;;1.21;100.00;99072.69;10130238;28;20046;-70
2021/12/02 02:58:29;;;;;;;5.78;0.30;;;;;;;1.23;100.00;99065.91;10137909;28;20120;-70
2021/12/02 03:03:41;;;;;;;3.45;0.40;;;;;;;1.22;100.00;99068.88;10133625;28;20077;-69
2021/12/02 03:08:48;;;;;;;5.90;0.70;;;;;;;1.17;100.00;99090.50;10138805;28;20042;-70
2021/12/02 03:13:50;;;;;;;5.05;0.75;;;;;;;1.07;100.00;99093.34;10137506;28;20105;-68
2021/12/02 03:18:47;;;;;;;4.28;0.90;;;;;;;1.07;100.00;99104.13;10129013;28;20085;-70
2021/12/02 03:23:51;;;;;;;4.97;1.08;;;;;;;1.08;100.00;99113.81;10149412;28;20050;-70
2021/12/02 03:28:49;;;;;;;3.95;0.52;;;;;;;1.01;100.00;99123.06;10139579;28;20074;-70
2021/12/02 03:33:46;;;;;;;4.75;0.60;;;;;;;0.98;100.00;99134.41;10136321;28;20807;-70
2021/12/02 03:38:44;;;;;;;4.45;0.57;;;;;;;0.95;100.00;99135.00;10144969;28;20463;-70
2021/12/02 03:43:43;;;;;;;4.32;1.08;;;;;;;0.91;100.00;99133.19;10129346;28;20158;-69
2021/12/02 03:48:40;;;;;;;2.83;0.45;;;;;;;0.92;100.00;99135.56;10134761;28;20133;-69
2021/12/02 03:53:38;;;;;;;3.97;0.57;;;;;;;0.87;100.00;99138.34;10140554;28;20491;-70
2021/12/02 03:58:36;;;;;;;3.92;0.73;;;;;;;0.88;100.00;99148.00;10138433;28;20113;-70
2021/12/02 04:03:33;;;;;;;6.43;2.35;;;;;;;0.82;100.00;99151.88;10138441;28;20062;-70
2021/12/02 04:13:45;;;;;;;2.83;0.60;;;;;;;0.79;100.00;99179.34;10134811;28;20078;-69
2021/12/02 04:18:41;;;;;;;7.68;0.70;;;;;;;0.77;100.00;99192.31;10134301;28;20101;-70
2021/12/02 04:23:38;;;;;;;3.25;0.70;;;;;;;0.70;100.00;99199.94;10141688;28;20043;-69
2021/12/02 04:28:35;;;;;;;11.85;0.80;;;;;;;0.68;100.00;99210.19;10125755;28;20105;-70
2021/12/02 04:33:32;;;;;;;15.13;1.48;;;;;;;0.61;100.00;99211.34;10143202;28;20153;-68
2021/12/02 04:38:29;;;;;;;12.02;1.60;;;;;;;0.59;100.00;99218.09;10135446;28;20130;-69
2021/12/02 04:43:26;;;;;;;4.05;0.75;;;;;;;0.57;100.00;99229.13;10136939;28;20186;-69
2021/12/02 04:48:22;;;;;;;5.13;0.82;;;;;;;0.55;100.00;99239.38;10140382;28;20457;-69
2021/12/02 04:53:19;;;;;;;8.40;0.95;;;;;;;0.54;100.00;99232.41;10135285;28;20137;-70
2021/12/02 04:58:16;;;;;;;5.70;0.68;;;;;;;0.51;100.00;99254.50;10140672;28;20047;-70
2021/12/02 05:03:13;;;;;;;8.60;0.60;;;;;;;0.40;100.00;99253.03;10139538;28;20568;-70
2021/12/02 05:08:09;;;;;;;15.80;1.50;;;;;;;0.39;100.00;99254.09;10143884;28;20046;-70
2021/12/02 05:13:06;;;;;;;4.10;0.47;;;;;;;0.44;100.00;99259.41;10134506;28;20125;-70
2021/12/02 05:18:03;;;;;;;9.90;1.05;;;;;;;0.38;100.00;99271.31;10134955;28;20564;-70
2021/12/02 05:23:00;;;;;;;8.60;1.00;;;;;;;0.36;100.00;99262.75;10128709;28;20039;-70
2021/12/02 05:28:01;;;;;;;5.28;0.70;;;;;;;0.32;100.00;99267.88;10113008;28;20054;-70
2021/12/02 05:32:58;;;;;;;4.38;0.70;;;;;;;0.36;100.00;99273.50;10120134;28;20243;-70
2021/12/02 05:37:55;;;;;;;4.22;0.60;;;;;;;0.38;100.00;99276.69;10118035;28;20042;-70
2021/12/02 05:42:52;;;;;;;12.60;2.63;;;;;;;0.35;100.00;99288.03;10129613;28;20042;-70
2021/12/02 05:47:49;;;;;;;5.13;1.10;;;;;;;0.38;100.00;99298.22;10138491;28;20602;-69
2021/12/02 05:52:45;;;;;;;7.05;0.98;;;;;;;0.38;100.00;99314.34;10138686;28;20864;-70
2021/12/02 05:57:42;;;;;;;7.82;0.75;;;;;;;0.39;100.00;99313.25;10132258;28;20915;-69
2021/12/02 06:02:44;;;;;;;6.40;1.38;;;;;;;0.41;100.00;99319.16;10130325;28;20043;-69
2021/12/02 06:07:40;;;;;;;7.55;1.25;;;;;;;0.40;100.00;99339.06;10124243;28;20049;-69
2021/12/02 06:12:37;;;;;;;6.63;1.85;;;;;;;0.40;100.00;99352.50;10127946;28;20105;-70
2021/12/02 06:17:35;;;;;;;8.90;0.60;;;;;;;0.42;100.00;99358.41;10135188;28;20049;-70
2021/12/02 06:22:33;;;;;;;8.32;0.90;;;;;;;0.39;100.00;99365.13;10127769;28;20034;-70
2021/12/02 06:27:29;;;;;;;6.78;1.08;;;;;;;0.36;100.00;99379.16;10123008;28;20549;-69
2021/12/02 06:32:26;;;;;;;5.57;0.75;;;;;;;0.42;100.00;99396.06;10137124;28;20760;-69
2021/12/02 06:37:23;;;;;;;9.02;2.08;;;;;;;0.38;100.00;99401.19;10150744;28;20445;-70
2021/12/02 06:42:19;;;;;;;7.57;1.40;;;;;;;0.35;100.00;99411.72;10173799;28;20078;-69
2021/12/02 06:47:16;;;;;;;11.90;1.35;;;;;;;0.32;100.00;99415.75;10150185;28;20073;-69
2021/12/02 06:52:15;;;;;;;8.15;1.10;;;;;;;0.35;100.00;99436.72;10155746;28;20521;-70
2021/12/02 06:57:11;;;;;;;11.70;1.50;;;;;;;0.30;100.00;99442.13;10145080;28;20057;-69
2021/12/02 07:02:09;;;;;;;7.72;0.95;;;;;;;0.29;100.00;99455.84;10160258;28;20050;-69
2021/12/02 07:07:06;;;;;;;13.85;1.25;;;;;;;0.30;100.00;99460.13;10143798;28;20046;-69
2021/12/02 07:12:03;;;;;;;7.53;2.05;;;;;;;0.20;100.00;99456.44;10168128;28;20529;-70
2021/12/02 07:17:02;;;;;;;9.95;1.95;;;;;;;0.20;100.00;99463.69;10158991;28;20105;-70
2021/12/02 07:21:59;;;;;;;11.27;2.20;;;;;;;0.24;100.00;99472.03;10163355;28;20050;-69
2021/12/02 07:26:57;;;;;;;12.45;1.67;;;;;;;0.25;100.00;99497.81;10138761;28;20510;-70
2021/12/02 07:31:54;;;;;;;5.80;1.45;;;;;;;0.24;100.00;99504.28;10151666;28;20050;-69
2021/12/02 07:36:53;;;;;;;8.15;1.30;;;;;;;0.25;100.00;99516.63;10126037;28;20137;-69
2021/12/02 07:41:49;;;;;;;7.15;1.88;;;;;;;0.27;100.00;99522.53;10134182;28;20073;-69
2021/12/02 07:46:46;;;;;;;12.90;1.90;;;;;;;0.23;100.00;99524.16;10138929;28;20408;-69
2021/12/02 07:51:44;;;;;;;13.85;1.30;;;;;;;0.22;100.00;99522.56;10131129;28;20081;-70
2021/12/02 07:56:40;;;;;;;11.90;1.80;;;;;;;0.27;100.00;99538.66;10128195;28;20054;-68
2021/12/02 08:01:37;;;;;;;10.30;1.50;;;;;;;0.32;100.00;99541.31;10138239;28;20050;-68
2021/12/02 08:06:34;;;;;;;6.57;1.10;;;;;;;0.33;100.00;99561.75;10131577;28;20554;-67
2021/12/02 08:11:30;;;;;;;7.63;1.40;;;;;;;0.39;100.00;99563.31;10127568;28;20051;-70
2021/12/02 08:16:27;;;;;;;9.60;1.67;;;;;;;0.43;100.00;99569.75;10120607;28;20082;-70
2021/12/02 08:21:23;;;;;;;9.98;1.42;;;;;;;0.41;100.00;99582.69;10131144;28;20193;-70
2021/12/02 08:26:20;;;;;;;11.10;1.67;;;;;;;0.38;100.00;99596.69;10138603;28;20105;-69
2021/12/02 08:31:16;;;;;;;8.25;1.20;;;;;;;0.40;100.00;99592.63;10140719;28;20080;-70
2021/12/02 08:36:13;;;;;;;9.27;1.77;;;;;;;0.44;100.00;99617.06;10148817;28;20089;-70
2021/12/02 08:41:11;;;;;;;7.22;1.42;;;;;;;0.47;100.00;99624.59;10153870;28;20471;-70
2021/12/02 08:46:07;;;;;;;10.88;1.33;;;;;;;0.57;100.00;99635.28;10155131;28;20045;-70
2021/12/02 08:51:04;;;;;;;16.30;1.60;;;;;;;0.67;100.00;99639.00;10151300;28;20065;-70
2021/12/02 08:56:01;;;;;;;5.65;1.10;;;;;;;0.75;100.00;99646.50;10156538;28;20057;-70
2021/12/02 09:00:57;;;;;;;8.45;1.27;;;;;;;0.75;100.00;99662.66;10153042;28;20564;-71
2021/12/02 09:05:54;;;;;;;9.15;1.45;;;;;;;0.76;100.00;99669.63;10150570;28;20145;-70
2021/12/02 09:10:51;;;;;;;7.00;1.20;;;;;;;0.75;100.00;99671.53;10151013;28;20121;-70
2021/12/02 09:15:47;;;;;;;8.88;1.38;;;;;;;0.80;100.00;99673.38;10141857;28;20096;-70
2021/12/02 09:20:44;;;;;;;8.07;1.40;;;;;;;0.90;100.00;99681.38;10157545;28;20116;-70
2021/12/02 09:25:42;;;;;;;10.98;1.77;;;;;;;1.05;100.00;99683.19;10150264;28;20054;-69
2021/12/02 09:30:39;;;;;;;7.30;1.05;;;;;;;1.19;100.00;99688.75;10123862;28;20047;-70
2021/12/02 09:35:36;;;;;;;11.82;1.70;;;;;;;1.39;100.00;99702.06;10135041;28;20050;-70
2021/12/02 09:40:32;;;;;;;13.38;2.75;;;;;;;1.65;100.00;99696.44;10137100;28;20124;-69
2021/12/02 09:45:29;;;;;;;14.90;1.55;;;;;;;1.98;98.32;99699.38;10138226;28;20120;-70
2021/12/02 09:50:32;;;;;;;9.43;1.58;;;;;;;2.15;94.75;99723.19;10132015;28;20066;-68
2021/12/02 09:55:56;;;;;;;10.13;1.83;;;;;;;2.39;92.58;99715.91;10124633;28;20054;-71
2021/12/02 10:01:06;;;;;;;11.05;1.20;;;;;;;2.49;90.61;99714.97;10146809;28;20093;-69
2021/12/02 10:06:10;;;;;;;6.97;1.35;;;;;;;2.43;89.91;99726.91;10156296;28;20042;-70
2021/12/02 10:11:10;;;;;;;;;;;;;;;2.66;89.84;99728.78;10151431;28;20054;-71
2021/12/02 10:16:10;;;;;;;6.20;1.63;;;;;;;2.59;88.34;99732.94;10135553;28;20008;-71
2021/12/02 10:21:23;;;;;;;5.50;1.55;;;;;;;2.60;84.33;99740.75;10156906;28;20790;-71
2021/12/02 10:26:25;;;;;;;3.53;0.98;;;;;;;2.55;84.96;99751.59;10142349;28;20049;-70
2021/12/02 10:31:25;;;;;;;7.90;2.08;;;;;;;2.68;87.05;99756.28;10142954;28;20458;-70
2021/12/02 10:36:25;;;;;;;9.32;1.33;;;;;;;2.71;84.36;99769.19;10154940;28;20046;-70
2021/12/02 10:41:26;;;;;;;9.45;3.55;;;;;;;2.77;88.83;99769.16;10145651;28;20050;-71
2021/12/02 10:46:23;;;;;;;8.93;1.30;;;;;;;2.73;84.87;99775.13;10166268;28;20484;-71
2021/12/02 10:51:45;;;;;;;8.25;1.20;;;;;;;2.69;82.60;99778.69;10147879;28;20141;-71
2021/12/02 10:56:48;;;;;;;5.93;1.20;;;;;;;2.67;81.04;99780.88;10130616;28;20081;-71
2021/12/02 11:01:45;;;;;;;7.07;1.33;;;;;;;2.79;80.56;99783.19;10134651;28;20062;-71
2021/12/02 11:06:44;;;;;;;8.43;1.60;;;;;;;3.25;81.03;99791.50;10126113;28;20050;-71
2021/12/02 11:11:41;;;;;;;10.48;1.48;;;;;;;3.16;76.63;99799.44;10127545;28;20043;-70
2021/12/02 11:16:37;;;;;;;5.97;1.17;;;;;;;3.39;77.28;99807.78;10129768;28;20047;-70
2021/12/02 11:21:37;;;;;;;5.35;1.20;;;;;;;3.45;74.19;99812.00;10126647;28;20042;-70
2021/12/02 11:26:34;;;;;;;7.72;1.33;;;;;;;3.55;75.19;99806.47;10133064;28;20105;-70
2021/12/02 11:31:31;;;;;;;6.78;1.17;;;;;;;3.52;73.25;99820.53;10124012;28;20463;-70
2021/12/02 11:36:30;;;;;;;7.07;0.95;;;;;;;3.29;75.32;99838.41;10122607;28;20058;-70
2021/12/02 11:41:28;;;;;;;6.30;1.45;;;;;;;3.11;73.96;99829.22;10131908;28;20042;-69
2021/12/02 11:46:24;;;;;;;8.25;1.30;;;;;;;3.11;75.22;99844.59;10119734;28;20106;-70
2021/12/02 11:51:22;;;;;;;5.53;1.30;;;;;;;2.96;74.46;99853.69;10124519;28;20101;-70
2021/12/02 11:56:21;;;;;;;6.47;1.20;;;;;;;2.81;79.39;99861.97;10129442;28;20633;-71
2021/12/02 12:01:21;;;;;;;10.10;1.17;;;;;;;2.64;78.12;99868.63;10142558;28;20061;-71
2021/12/02 12:06:33;;;;;;;9.75;1.10;;;;;;;2.42;79.64;99865.63;10146530;28;20414;-71
2021/12/02 12:11:32;;;;;;;4.95;1.05;;;;;;;2.23;81.96;99885.19;10158940;28;20131;-70
2021/12/02 12:16:45;;;;;;;6.60;1.17;;;;;;;2.08;83.15;99896.09;10140638;28;20046;-70
2021/12/02 12:21:44;;;;;;;8.55;1.50;;;;;;;2.09;84.35;99889.63;10155297;28;20154;-71
2021/12/02 12:26:46;;;;;;;;;;;;;;;2.28;86.08;99892.44;10132535;28;20057;-69
2021/12/02 12:31:46;;;;;;;8.20;1.33;;;;;;;2.24;86.07;99892.19;10134762;28;19926;-68
2021/12/02 12:36:45;;;;;;;7.85;1.30;;;;;;;2.12;85.59;99905.25;10136332;28;20519;-69
2021/12/02 12:41:42;;;;;;;8.32;1.50;;;;;;;2.17;88.13;99896.31;10130520;28;20105;-70
2021/12/02 12:46:54;;;;;;;10.02;1.90;;;;;;;2.27;87.23;99918.59;10129634;28;20074;-69
2021/12/02 12:51:54;;;;;;;12.73;4.40;;;;;;;2.52;88.68;99919.47;10127690;28;20097;-70
2021/12/02 12:57:05;;;;;;;11.65;1.90;;;;;;;2.51;89.10;99923.28;10130965;28;20058;-70
2021/12/02 13:02:02;;;;;;;12.55;2.10;;;;;;;2.63;87.79;99918.31;10129788;28;20049;-70
2021/12/02 13:07:14;;;;;;;8.13;2.22;;;;;;;2.76;86.26;99924.13;10129572;28;20053;-70
2021/12/02 13:12:15;;;;;;;8.48;1.75;;;;;;;2.91;86.81;99937.47;10130531;28;20074;-69
2021/12/02 13:17:34;;;;;;;9.55;1.88;;;;;;;2.78;85.22;99949.72;10115913;28;20050;-69
2021/12/02 13:22:30;;;;;;;9.15;1.67;;;;;;;2.65;86.06;99964.72;10136894;28;20125;-69
2021/12/02 13:27:27;;;;;;;9.90;1.92;;;;;;;2.44;89.30;99976.78;10146772;28;20097;-69
2021/12/02 13:32:23;;;;;;;10.95;1.48;;;;;;;2.53;91.03;99980.47;10153129;28;20042;-69
2021/12/02 13:37:20;;;;;;;7.88;2.45;;;;;;;2.40;91.83;99981.09;10148000;28;20046;-69
2021/12/02 13:42:16;;;;;;;9.73;1.80;;;;;;;2.45;91.97;99989.16;10157700;28;20669;-68
2021/12/02 13:47:31;;;;;;;10.52;1.58;;;;;;;2.48;92.06;99993.97;10159209;28;20042;-71
2021/12/02 13:57:48;;;;;;;9.55;1.55;;;;;;;2.50;92.93;100016.09;10153313;28;20764;-70
2021/12/02 14:02:50;;;;;;;11.55;1.60;;;;;;;2.39;93.38;100025.34;10158869;28;20097;-73
2021/12/02 14:07:48;;;;;;;11.00;1.92;;;;;;;2.31;94.71;100032.94;10152366;28;20140;-68
2021/12/02 14:12:51;;;;;;;9.43;1.92;;;;;;;2.31;95.54;100038.34;10156835;28;20062;-69
2021/12/02 14:17:49;;;;;;;6.18;1.23;;;;;;;2.32;96.58;100044.53;10137940;28;20046;-71
2021/12/02 14:22:54;;;;;;;10.95;2.33;;;;;;;2.23;97.70;100047.03;10152088;28;20046;-70
2021/12/02 14:28:15;;;;;;;13.20;1.85;;;;;;;2.29;97.10;100056.69;10145517;28;20084;-70
2021/12/02 14:33:14;;;;;;;9.55;1.63;;;;;;;2.26;97.79;100054.56;10140821;28;20546;-69
2021/12/02 14:38:19;;;;;;;11.68;2.33;;;;;;;2.29;98.18;100062.09;10135680;28;20043;-69
2021/12/02 14:43:29;;;;;;;12.55;4.03;;;;;;;2.28;99.47;100076.69;10151631;28;20080;-69
2021/12/02 14:48:27;;;;;;;7.88;2.42;;;;;;;2.18;100.00;100084.84;10150438;28;20470;-69
2021/12/02 14:53:30;;;;;;;14.65;2.80;;;;;;;2.11;100.00;100087.00;10168376;28;20112;-69
2021/12/02 14:58:29;;;;;;;10.90;2.60;;;;;;;2.09;100.00;100099.97;10160653;28;20140;-70
2021/12/02 15:03:28;;;;;;;8.88;1.52;;;;;;;2.08;100.00;100103.75;10153849;28;20047;-69
2021/12/02 15:08:32;;;;;;;12.20;3.13;;;;;;;2.02;100.00;100110.22;10154113;28;20050;-69
2021/12/02 15:13:43;;;;;;;10.52;2.22;;;;;;;1.88;100.00;100110.84;10159550;28;20054;-69
2021/12/02 15:18:42;;;;;;;7.28;1.67;;;;;;;1.84;100.00;100130.53;10154743;28;20078;-71
2021/12/02 15:23:39;;;;;;;8.45;1.70;;;;;;;1.71;100.00;100126.50;10160403;28;20410;-70
2021/12/02 15:28:52;;;;;;;10.52;1.08;;;;;;;1.58;100.00;100137.84;10154807;28;20047;-69
2021/12/02 15:33:51;;;;;;;5.40;1.10;;;;;;;1.51;100.00;100138.16;10128844;28;20054;-72
2021/12/02 15:38:50;;;;;;;9.27;1.75;;;;;;;1.47;100.00;100154.03;10132346;28;20050;-70
2021/12/02 15:43:53;;;;;;;10.90;2.50;;;;;;;1.50;100.00;100178.81;10133665;28;20569;-70
2021/12/02 15:48:51;;;;;;;8.75;1.33;;;;;;;1.47;100.00;100191.75;10138142;28;20352;-70
2021/12/02 15:53:48;;;;;;;9.85;1.50;;;;;;;1.42;100.00;100194.44;10137252;28;20042;-71
2021/12/02 15:58:44;;;;;;;9.40;1.77;;;;;;;1.36;100.00;100210.88;10146380;28;20450;-71
2021/12/02 16:03:46;;;;;;;6.80;1.92;;;;;;;1.38;100.00;100222.19;10148466;28;20046;-70
2021/12/02 16:13:46;;;;;;;11.02;2.15;;;;;;;1.20;100.00;100228.91;10159428;28;20116;-69
2021/12/02 16:18:43;;;;;;;8.15;2.05;;;;;;;1.13;100.00;100228.34;10143830;28;20438;-69
2021/12/02 16:23:42;;;;;;;10.15;2.30;;;;;;;1.13;100.00;100241.81;10144522;28;20101;-68
2021/12/02 16:28:40;;;;;;;9.13;2.33;;;;;;;1.11;100.00;100241.28;10139497;28;20101;-69
2021/12/02 16:33:37;;;;;;;10.27;2.08;;;;;;;1.04;100.00;100242.34;10151936;28;20435;-71
2021/12/02 16:38:33;;;;;;;13.95;2.58;;;;;;;0.94;100.00;100255.78;10146998;28;20081;-72
2021/12/02 16:43:30;;;;;;;10.82;2.67;;;;;;;0.94;100.00;100263.84;10153980;28;20533;-70
2021/12/02 16:48:27;;;;;;;9.25;2.47;;;;;;;0.83;100.00;100272.97;10128694;28;20069;-71
2021/12/02 16:53:23;;;;;;;8.05;1.85;;;;;;;0.92;100.00;100274.06;10145049;28;20104;-70
2021/12/02 16:58:24;;;;;;;12.27;2.80;;;;;;;0.90;100.00;100278.91;10147654;28;20427;-70
2021/12/02 17:03:21;;;;;;;10.43;2.55;;;;;;;0.89;100.00;100276.50;10135241;28;20103;-71
2021/12/02 17:08:18;;;;;;;8.80;2.63;;;;;;;0.82;100.00;100287.50;10158913;28;20050;-72
2021/12/02 17:13:14;;;;;;;8.07;2.58;;;;;;;0.80;100.00;100295.03;10151960;28;20043;-71
2021/12/02 17:18:11;;;;;;;8.93;3.10;;;;;;;0.68;100.00;100313.28;10143082;28;20080;-70
2021/12/02 17:23:10;;;;;;;9.60;2.35;;;;;;;0.71;100.00;100318.13;10152518;28;20076;-70
2021/12/02 17:28:08;;;;;;;8.50;2.25;;;;;;;0.60;100.00;100330.72;10147772;28;20554;-72
2021/12/02 17:33:05;;;;;;;11.45;2.30;;;;;;;0.75;100.00;100324.63;10138093;28;20094;-73
2021/12/02 17:38:02;;;;;;;9.88;2.05;;;;;;;0.71;100.00;100323.50;10137441;28;20049;-70
2021/12/02 17:43:02;;;;;;;7.15;2.08;;;;;;;0.77;100.00;100335.94;10152190;28;20050;-70
2021/12/02 17:47:59;;;;;;;7.90;1.83;;;;;;;0.81;100.00;100335.16;10149899;28;20212;-70
2021/12/02 17:52:57;;;;;;;12.38;2.60;;;;;;;0.76;100.00;100342.38;10164955;28;20046;-72
2021/12/02 17:57:55;;;;;;;6.78;1.92;;;;;;;0.67;100.00;100354.69;10150691;28;20137;-71
2021/12/02 18:02:51;;;;;;;6.57;2.08;;;;;;;0.68;100.00;100350.94;10155410;28;20074;-70
2021/12/02 18:07:48;;;;;;;7.18;2.25;;;;;;;0.65;100.00;100352.28;10119934;28;20046;-69
2021/12/02 18:12:46;;;;;;;6.63;2.15;;;;;;;0.76;100.00;100345.88;10127969;28;20051;-71
2021/12/02 18:17:47;;;;;;;10.55;2.38;;;;;;;0.56;100.00;100343.88;10138834;28;20050;-69
2021/12/02 18:22:43;;;;;;;9.38;3.00;;;;;;;0.59;100.00;100348.75;10133105;28;20050;-71
2021/12/02 18:27:41;;;;;;;14.30;2.42;;;;;;;0.66;100.00;100353.91;10130714;28;20097;-71
2021/12/02 18:32:38;;;;;;;9.38;2.00;;;;;;;0.65;100.00;100351.44;10137222;28;20050;-69
2021/12/02 18:37:35;;;;;;;13.73;3.15;;;;;;;0.63;100.00;100344.47;10136072;28;20457;-69
2021/12/02 18:42:31;;;;;;;12.65;2.20;;;;;;;0.72;100.00;100330.50;10131516;28;20556;-72
2021/12/02 18:47:28;;;;;;;10.38;3.20;;;;;;;0.67;100.00;100344.75;10138643;28;20039;-70
2021/12/02 18:52:27;;;;;;;16.95;3.30;;;;;;;0.70;100.00;100344.25;10135507;28;20463;-72
2021/12/02 18:57:24;;;;;;;11.77;3.15;;;;;;;0.63;100.00;100349.84;10118140;28;20760;-68
2021/12/02 19:02:23;;;;;;;11.15;3.08;;;;;;;0.58;100.00;100352.50;10135164;28;20470;-69
2021/12/02 19:27:49;;;;;;;7.53;2.97;;;;;;;0.40;100.00;100355.63;10136895;28;20050;-71
2021/12/02 19:32:45;;;;;;;10.98;3.58;;;;;;;0.40;100.00;100361.00;10144105;28;20050;-68
2021/12/02 19:37:42;;;;;;;13.90;4.75;;;;;;;0.38;100.00;100373.91;10145299;28;20046;-68
2021/12/02 19:42:39;;;;;;;13.05;4.70;;;;;;;0.31;100.00;100395.63;10134432;28;20062;-67
2021/12/02 19:47:35;;;;;;;10.30;4.72;;;;;;;0.22;100.00;100397.16;10127934;28;20046;-67
2021/12/02 19:52:32;;;;;;;16.00;4.93;;;;;;;0.30;100.00;100398.56;10145127;28;20073;-72
2021/12/02 19:57:28;;;;;;;12.02;4.40;;;;;;;0.18;100.00;100407.63;10131859;28;20066;-68
2021/12/02 20:02:25;;;;;;;12.35;4.55;;;;;;;0.17;100.00;100400.63;10139514;28;20061;-69
2021/12/02 20:07:22;;;;;;;11.68;4.20;;;;;;;0.13;100.00;100396.03;10128500;28;20502;-69
2021/12/02 20:12:23;;;;;;;8.90;4.45;;;;;;;0.05;100.00;100383.03;10143116;28;20140;-67
2021/12/02 20:17:25;;;;;;;10.38;4.05;;;;;;;0.08;100.00;100379.84;10135384;28;20055;-67
2021/12/02 20:22:21;;;;;;;7.68;3.80;;;;;;;0.12;100.00;100381.78;10141330;28;20479;-68
2021/12/02 20:27:19;;;;;;;7.88;3.47;;;;;;;0.12;100.00;100376.41;10130344;28;20097;-67
2021/12/02 20:32:16;;;;;;;12.05;3.85;;;;;;;0.03;100.00;100383.31;10136313;28;20070;-68
2021/12/02 20:37:13;;;;;;;10.75;3.70;;;;;;;0.05;100.00;100375.81;10141736;28;20495;-68
2021/12/02 20:42:10;;;;;;;7.90;3.40;;;;;;;-0.06;100.00;100379.47;10142745;28;20070;-69
2021/12/02 20:47:14;;;;;;;10.90;3.58;;;;;;;-0.03;100.00;100374.38;10136119;28;20134;-67
2021/12/02 20:52:10;;;;;;;6.38;2.65;;;;;;;-0.04;100.00;100366.59;10141516;28;20116;-68
2021/12/02 20:57:10;;;;;;;15.52;4.22;;;;;;;0.03;100.00;100372.56;10139445;28;20407;-70
2021/12/02 21:02:07;;;;;;;8.50;5.10;;;;;;;0.00;100.00;100378.44;10111865;28;20061;-66
2021/12/02 21:07:04;;;;;;;8.95;3.17;;;;;;;-0.10;100.00;100383.72;10132289;28;20057;-65
2021/12/02 21:12:01;;;;;;;10.23;3.05;;;;;;;-0.01;100.00;100382.19;10122451;28;20521;-73
2021/12/02 21:16:57;;;;;;;8.05;2.92;;;;;;;-0.04;100.00;100388.09;10148531;28;20591;-68
2021/12/02 21:21:54;;;;;;;5.95;2.47;;;;;;;0.04;100.00;100395.66;10143775;28;20489;-69
2021/12/02 21:26:50;;;;;;;4.68;1.98;;;;;;;0.02;100.00;100389.72;10116842;28;20087;-69
2021/12/02 21:31:51;;;;;;;6.10;2.60;;;;;;;0.05;100.00;100391.94;10119591;28;20081;-69
2021/12/02 21:36:54;;;;;;;9.18;2.42;;;;;;;0.14;100.00;100385.03;10133569;28;20466;-68
2021/12/02 21:41:51;;;;;;;8.43;2.58;;;;;;;0.16;100.00;100382.88;10129750;28;20547;-68
2021/12/02 21:46:49;;;;;;;6.95;2.85;;;;;;;0.09;100.00;100376.88;10131159;28;20098;-71
2021/12/02 21:51:50;;;;;;;6.40;2.45;;;;;;;0.11;100.00;100395.47;10147847;28;20043;-69
2021/12/02 21:56:52;;;;;;;53.45;7.22;;;;;;;0.07;100.00;100405.09;10158438;28;20043;-69
2021/12/02 22:01:48;;;;;;;7.90;3.33;;;;;;;0.15;100.00;100401.97;10156380;28;20157;-69
2021/12/02 22:06:46;;;;;;;8.98;2.65;;;;;;;0.22;100.00;100396.38;10147754;28;20054;-69
2021/12/02 22:11:43;;;;;;;9.13;2.45;;;;;;;0.27;100.00;100399.09;10147375;28;20062;-70
2021/12/02 22:16:41;;;;;;;6.32;2.53;;;;;;;0.27;100.00;100404.47;10155774;28;20066;-69
2021/12/02 22:21:38;;;;;;;6.85;3.00;;;;;;;0.32;100.00;100409.88;10149910;28;20042;-69
2021/12/02 22:26:38;;;;;;;6.00;2.70;;;;;;;0.27;100.00;100416.03;10142979;28;20541;-68
2021/12/02 22:31:35;;;;;;;8.73;3.33;;;;;;;0.25;100.00;100436.19;10149576;28;20046;-69
2021/12/02 22:36:35;;;;;;;6.72;2.65;;;;;;;0.20;100.00;100437.75;10156527;28;20104;-69
2021/12/02 22:41:33;;;;;;;6.82;3.22;;;;;;;0.15;100.00;100435.03;10161913;28;20092;-73
2021/12/02 22:46:29;;;;;;;261.95;13.55;;;;;;;0.12;100.00;100432.84;10168855;28;20062;-68
2021/12/02 22:51:26;;;;;;;5.75;3.22;;;;;;;0.17;100.00;100459.78;10181612;28;20060;-70
2021/12/02 22:56:22;;;;;;;7.93;3.08;;;;;;;0.19;100.00;100457.66;10160865;28;20046;-70
2021/12/02 23:01:22;;;;;;;11.30;3.97;;;;;;;0.14;100.00;100454.09;10158808;28;20097;-68
2021/12/02 23:06:20;;;;;;;11.25;4.60;;;;;;;0.13;100.00;100442.53;10156750;28;20050;-69
2021/12/02 23:11:16;;;;;;;8.43;4.70;;;;;;;0.05;100.00;100451.06;10161889;28;20510;-69
2021/12/02 23:16:13;;;;;;;11.30;4.78;;;;;;;0.06;100.00;100447.31;10159631;28;20045;-68
2021/12/02 23:21:10;;;;;;;8.80;5.28;;;;;;;0.06;100.00;100452.69;10167970;28;20073;-69
2021/12/02 23:26:12;;;;;;;10.05;4.93;;;;;;;0.07;100.00;100465.06;10154858;28;20046;-68
2021/12/02 23:31:09;;;;;;;12.90;5.93;;;;;;;0.07;100.00;100465.06;10148027;28;20096;-68
2021/12/02 23:36:09;;;;;;;11.68;5.97;;;;;;;0.03;100.00;100468.53;10164015;28;20141;-69
2021/12/02 23:41:06;;;;;;;15.38;5.95;;;;;;;0.02;100.00;100462.31;10158850;28;20039;-73